Time;durP1;ratioP1;P1;durP2;ratioP2;P2;SDS_P1;SDS_P2;PMS_P1;PMS_P2;Temp;Humidity;BMP_temperature;BMP_pressure;BME280_temperature;BME280_humidity;BME280_pressure;Samples;Min_cycle;Max_cycle;Signal;HPM_P1;HPM_P2
2021/08/31 00:00:24;;;;;;;15.50;10.73;;;14.40;99.90;;;;;;5033166;28;20189;-78
2021/08/31 00:02:49;;;;;;;13.40;10.60;;;14.40;99.90;;;;;;5037111;28;20430;-78
2021/08/31 00:05:15;;;;;;;15.00;10.90;;;14.40;99.90;;;;;;5033132;28;20546;-78
2021/08/31 00:07:41;;;;;;;14.77;12.50;;;14.40;99.90;;;;;;5036510;28;20610;-78
2021/08/31 00:10:08;;;;;;;13.00;10.93;;;14.40;99.90;;;;;;5032941;28;20167;-78
2021/08/31 00:12:34;;;;;;;16.73;12.33;;;14.40;99.90;;;;;;5038762;28;20425;-76
2021/08/31 00:15:00;;;;;;;14.83;11.37;;;14.40;99.90;;;;;;5051874;28;20405;-76
2021/08/31 00:17:25;;;;;;;14.13;10.63;;;14.50;99.90;;;;;;5052060;28;20560;-76
2021/08/31 00:19:51;;;;;;;15.47;10.90;;;14.50;99.90;;;;;;5050610;28;20413;-76
2021/08/31 00:22:16;;;;;;;14.77;11.70;;;14.60;99.90;;;;;;5044953;28;20187;-76
2021/08/31 00:24:42;;;;;;;13.60;11.10;;;14.60;99.90;;;;;;5032279;28;20161;-76
2021/08/31 00:27:08;;;;;;;16.80;12.60;;;14.60;99.90;;;;;;5032194;28;20167;-76
2021/08/31 00:29:35;;;;;;;19.00;13.63;;;14.60;99.90;;;;;;5033609;28;20188;-76
2021/08/31 00:32:01;;;;;;;20.40;14.00;;;14.60;99.90;;;;;;5034188;28;20450;-76
2021/08/31 00:34:26;;;;;;;21.50;14.47;;;14.60;99.90;;;;;;5032322;28;20452;-76
2021/08/31 00:36:52;;;;;;;23.70;14.90;;;14.60;99.90;;;;;;5033257;28;20472;-76
2021/08/31 00:39:19;;;;;;;25.43;14.93;;;14.50;99.90;;;;;;5031934;28;20190;-76
2021/08/31 00:41:45;;;;;;;47.27;25.10;;;14.50;99.90;;;;;;5032076;28;20218;-76
2021/08/31 00:44:28;;;;;;;36.77;21.50;;;14.50;99.90;;;;;;5034705;28;20399;-76
2021/08/31 00:46:58;;;;;;;31.03;20.10;;;14.40;99.90;;;;;;5035656;28;20486;-76
2021/08/31 00:49:25;;;;;;;43.93;25.00;;;14.40;99.90;;;;;;5035819;28;20395;-76
2021/08/31 00:51:51;;;;;;;40.03;23.70;;;14.40;99.90;;;;;;5049072;28;20950;-76
2021/08/31 00:54:19;;;;;;;34.77;21.97;;;14.30;99.90;;;;;;5053753;28;20476;-76
2021/08/31 00:56:46;;;;;;;30.30;19.03;;;14.30;99.90;;;;;;5035106;28;20457;-76
2021/08/31 00:59:13;;;;;;;27.77;17.47;;;14.20;99.90;;;;;;5035397;28;20918;-76
2021/08/31 01:01:39;;;;;;;22.00;15.87;;;14.20;99.90;;;;;;5034508;28;20425;-76
2021/08/31 01:04:05;;;;;;;22.07;14.60;;;14.20;99.90;;;;;;5035718;28;20401;-76
2021/08/31 01:06:30;;;;;;;17.90;12.90;;;14.10;99.90;;;;;;5034930;28;20649;-76
2021/08/31 01:08:57;;;;;;;21.83;16.37;;;14.10;99.90;;;;;;5034992;28;20423;-76
2021/08/31 01:11:23;;;;;;;23.97;14.57;;;14.10;99.90;;;;;;5043826;28;20680;-76
2021/08/31 01:13:49;;;;;;;18.73;12.57;;;14.10;99.90;;;;;;5055060;28;20409;-76
2021/08/31 01:16:15;;;;;;;17.03;12.10;;;14.10;99.90;;;;;;5055008;28;20651;-76
2021/08/31 01:18:42;;;;;;;15.10;11.80;;;14.00;99.90;;;;;;5047163;28;20460;-76
2021/08/31 01:21:09;;;;;;;14.07;10.57;;;14.00;99.90;;;;;;5034613;28;20184;-76
2021/08/31 01:23:35;;;;;;;18.13;13.23;;;14.10;99.90;;;;;;5034863;28;20409;-76
2021/08/31 01:26:02;;;;;;;15.17;11.90;;;14.10;99.90;;;;;;5035132;28;20394;-76
2021/08/31 01:28:32;;;;;;;14.00;12.10;;;14.10;99.90;;;;;;5044117;28;20188;-76
2021/08/31 01:30:59;;;;;;;26.27;13.97;;;14.10;99.90;;;;;;5043222;28;20485;-76
2021/08/31 01:33:28;;;;;;;15.57;11.53;;;14.10;99.90;;;;;;5034648;28;20452;-76
2021/08/31 01:35:54;;;;;;;18.70;12.00;;;14.10;99.90;;;;;;5034443;28;20470;-76
2021/08/31 01:38:20;;;;;;;14.80;11.30;;;14.10;99.90;;;;;;5034939;28;20567;-76
2021/08/31 01:40:46;;;;;;;14.87;11.80;;;14.10;99.90;;;;;;5034428;28;20414;-76
2021/08/31 01:43:21;;;;;;;14.83;11.93;;;14.10;99.90;;;;;;5034882;28;20406;-76
2021/08/31 01:45:47;;;;;;;16.17;12.90;;;14.10;99.90;;;;;;5035321;28;20182;-76
2021/08/31 01:48:13;;;;;;;15.90;12.30;;;14.10;99.90;;;;;;5039370;28;20800;-76
2021/08/31 01:50:39;;;;;;;18.20;12.77;;;14.10;99.90;;;;;;5054079;28;20400;-76
2021/08/31 01:53:05;;;;;;;14.87;12.43;;;14.10;99.90;;;;;;5052664;28;20215;-76
2021/08/31 01:55:32;;;;;;;12.93;11.17;;;14.10;99.90;;;;;;5043926;28;20249;-76
2021/08/31 01:57:57;;;;;;;15.30;11.77;;;14.10;99.90;;;;;;5034084;28;20419;-76
2021/08/31 02:00:23;;;;;;;16.30;12.90;;;14.10;99.90;;;;;;5037898;28;20511;-76
2021/08/31 02:02:49;;;;;;;18.17;12.10;;;14.20;99.90;;;;;;5053263;28;20755;-76
2021/08/31 02:05:14;;;;;;;18.00;12.97;;;14.20;99.90;;;;;;5052530;28;20661;-76
2021/08/31 02:07:40;;;;;;;20.20;14.03;;;14.20;99.90;;;;;;5053906;28;20240;-76
2021/08/31 02:10:07;;;;;;;22.70;16.30;;;14.30;99.90;;;;;;5034308;28;20581;-76
2021/08/31 02:12:32;;;;;;;25.60;17.73;;;14.30;99.90;;;;;;5033967;28;20246;-76
2021/08/31 02:14:58;;;;;;;25.63;16.80;;;14.30;99.90;;;;;;5034380;28;20433;-76
2021/08/31 02:17:24;;;;;;;21.50;15.23;;;14.40;99.90;;;;;;5035278;28;20297;-76
2021/08/31 02:19:49;;;;;;;19.00;14.20;;;14.30;99.90;;;;;;5048291;28;20424;-76
2021/08/31 02:22:15;;;;;;;18.27;13.57;;;14.40;99.90;;;;;;5044120;28;20617;-76
2021/08/31 02:24:41;;;;;;;14.33;11.37;;;14.40;99.90;;;;;;5033539;28;20612;-76
2021/08/31 02:27:06;;;;;;;16.93;12.23;;;14.40;99.90;;;;;;5033925;28;20698;-76
2021/08/31 02:29:32;;;;;;;16.80;11.90;;;14.40;99.90;;;;;;5034705;28;20648;-75
2021/08/31 02:31:58;;;;;;;18.03;14.23;;;14.40;99.90;;;;;;5033425;28;22245;-76
2021/08/31 02:34:23;;;;;;;22.43;15.77;;;14.40;99.90;;;;;;5035141;28;20678;-76
2021/08/31 02:36:49;;;;;;;26.83;17.43;;;14.40;99.90;;;;;;5052695;28;20215;-76
2021/08/31 02:39:14;;;;;;;25.37;16.57;;;14.50;99.90;;;;;;5050780;28;20237;-76
2021/08/31 02:41:40;;;;;;;21.97;13.63;;;14.50;99.90;;;;;;5053933;28;20165;-76
2021/08/31 02:44:06;;;;;;;23.37;16.80;;;14.50;99.90;;;;;;5053242;28;20161;-76
2021/08/31 02:46:31;;;;;;;18.60;14.33;;;14.50;99.90;;;;;;5053312;28;20159;-76
2021/08/31 02:48:57;;;;;;;18.30;12.83;;;14.50;99.90;;;;;;5051139;28;20159;-76
2021/08/31 02:51:25;;;;;;;18.03;14.93;;;14.50;99.90;;;;;;5034372;28;20187;-76
2021/08/31 02:53:51;;;;;;;21.87;16.07;;;14.60;99.90;;;;;;5033970;28;20186;-75
2021/08/31 02:56:16;;;;;;;21.17;16.67;;;14.60;99.90;;;;;;5032885;28;20449;-75
2021/08/31 02:58:42;;;;;;;19.97;15.40;;;14.50;99.90;;;;;;5033333;28;20520;-75
2021/08/31 03:03:53;;;;;;;25.27;18.57;;;14.60;99.90;;;;;;5032040;28;20175;-75
2021/08/31 03:06:19;;;;;;;24.73;19.37;;;14.70;99.90;;;;;;5032511;28;20907;-75
2021/08/31 03:08:44;;;;;;;27.73;20.93;;;14.70;99.90;;;;;;5037133;28;20191;-75
2021/08/31 03:11:10;;;;;;;28.27;19.77;;;14.80;99.90;;;;;;5033851;28;20433;-75
2021/08/31 03:13:35;;;;;;;37.70;24.23;;;14.80;99.90;;;;;;5032764;28;20671;-75
2021/08/31 03:16:01;;;;;;;30.47;20.90;;;14.80;99.90;;;;;;5032917;28;20250;-75
2021/08/31 03:18:26;;;;;;;33.10;22.27;;;14.80;99.90;;;;;;5032743;28;20175;-75
2021/08/31 03:20:52;;;;;;;27.83;20.73;;;14.80;99.90;;;;;;5032511;28;20188;-75
2021/08/31 03:23:17;;;;;;;27.70;21.37;;;14.90;99.90;;;;;;5032523;28;20251;-75
2021/08/31 03:25:44;;;;;;;29.30;21.47;;;14.90;99.90;;;;;;5033489;28;20274;-75
2021/08/31 03:28:09;;;;;;;30.17;22.13;;;15.00;99.90;;;;;;5033427;28;20183;-75
2021/08/31 03:30:35;;;;;;;33.90;20.93;;;15.00;99.90;;;;;;5035184;28;20970;-75
2021/08/31 03:33:00;;;;;;;27.87;20.23;;;15.00;99.90;;;;;;5032576;28;20294;-75
2021/08/31 03:35:26;;;;;;;29.40;21.33;;;15.00;99.90;;;;;;5032273;28;20644;-75
2021/08/31 03:37:52;;;;;;;31.07;19.87;;;15.00;99.90;;;;;;5032636;28;20255;-75
2021/08/31 03:40:17;;;;;;;31.43;22.30;;;15.00;99.90;;;;;;5032502;28;20212;-75
2021/08/31 03:42:43;;;;;;;33.87;21.87;;;15.00;99.90;;;;;;5036479;28;20198;-75
2021/08/31 03:45:09;;;;;;;32.20;19.97;;;15.00;99.90;;;;;;5051421;28;20207;-75
2021/08/31 03:47:35;;;;;;;27.50;20.10;;;15.00;99.90;;;;;;5052183;28;20168;-75
2021/08/31 03:50:01;;;;;;;28.40;20.00;;;15.00;99.90;;;;;;5045274;28;20441;-75
2021/08/31 03:52:26;;;;;;;27.50;20.03;;;15.00;99.90;;;;;;5032260;28;20163;-75
2021/08/31 03:54:52;;;;;;;31.10;20.40;;;15.00;99.90;;;;;;5036839;28;20923;-75
2021/08/31 03:57:17;;;;;;;31.70;21.73;;;15.00;99.90;;;;;;5052054;28;20191;-75
2021/08/31 03:59:43;;;;;;;27.23;19.10;;;15.10;99.90;;;;;;5047290;28;20742;-75
2021/08/31 04:02:09;;;;;;;31.77;20.43;;;15.10;99.90;;;;;;5046314;28;20517;-75
2021/08/31 04:04:35;;;;;;;30.23;21.07;;;15.10;99.90;;;;;;5052038;28;20149;-75
2021/08/31 04:07:00;;;;;;;30.60;20.17;;;15.10;99.90;;;;;;5052680;28;20167;-77
2021/08/31 04:09:26;;;;;;;29.33;19.90;;;15.10;99.90;;;;;;5053024;28;20170;-77
2021/08/31 04:11:51;;;;;;;28.23;19.40;;;15.20;99.90;;;;;;5033014;28;20187;-76
2021/08/31 04:14:17;;;;;;;30.50;20.77;;;15.20;99.90;;;;;;5032206;28;20186;-77
2021/08/31 04:16:43;;;;;;;25.77;20.33;;;15.20;99.90;;;;;;5037227;28;20237;-77
2021/08/31 04:19:09;;;;;;;28.53;18.33;;;15.20;99.90;;;;;;5054032;28;20505;-77
2021/08/31 04:21:34;;;;;;;28.80;18.40;;;15.20;99.90;;;;;;5040585;28;20229;-77
2021/08/31 04:24:00;;;;;;;28.00;19.50;;;15.20;99.90;;;;;;5037258;28;20172;-77
2021/08/31 04:26:27;;;;;;;30.20;21.27;;;15.20;99.90;;;;;;5036176;28;20895;-75
2021/08/31 04:28:52;;;;;;;30.00;20.77;;;15.20;99.90;;;;;;5035680;28;20186;-75
2021/08/31 04:31:18;;;;;;;28.27;20.10;;;15.20;99.90;;;;;;5036333;28;20899;-75
2021/08/31 04:33:44;;;;;;;33.13;21.30;;;15.20;99.90;;;;;;5040136;28;20219;-75
2021/08/31 04:36:11;;;;;;;33.97;21.33;;;15.20;99.90;;;;;;5055013;28;20222;-75
2021/08/31 04:38:36;;;;;;;26.87;18.83;;;15.20;99.90;;;;;;5055383;28;20402;-75
2021/08/31 04:41:02;;;;;;;32.97;22.80;;;15.20;99.90;;;;;;5052084;28;20418;-75
2021/08/31 04:43:28;;;;;;;26.00;19.50;;;15.20;99.90;;;;;;5042683;28;20231;-75
2021/08/31 04:45:53;;;;;;;29.67;20.50;;;15.20;99.90;;;;;;5035516;28;20168;-75
2021/08/31 04:48:19;;;;;;;28.80;19.97;;;15.20;99.90;;;;;;5035252;28;20629;-75
2021/08/31 04:50:44;;;;;;;29.33;21.10;;;15.20;99.90;;;;;;5036158;28;20180;-75
2021/08/31 04:53:10;;;;;;;31.27;20.60;;;15.20;99.90;;;;;;5035636;28;20179;-75
2021/08/31 04:55:35;;;;;;;31.80;22.47;;;15.20;99.90;;;;;;5034975;28;20243;-75
2021/08/31 04:58:01;;;;;;;31.90;21.03;;;15.20;99.90;;;;;;5035344;28;20161;-75
2021/08/31 05:00:27;;;;;;;29.67;20.80;;;15.10;99.90;;;;;;5034444;28;20176;-75
2021/08/31 05:02:55;;;;;;;29.93;20.27;;;15.10;99.90;;;;;;5047272;28;20637;-75
2021/08/31 05:05:21;;;;;;;30.03;20.37;;;15.10;99.90;;;;;;5052893;28;20922;-75
2021/08/31 05:07:46;;;;;;;31.00;19.97;;;15.10;99.90;;;;;;5040154;28;20513;-75
2021/08/31 05:10:12;;;;;;;29.80;20.93;;;15.10;99.90;;;;;;5049672;28;20502;-75
2021/08/31 05:12:38;;;;;;;27.63;20.03;;;15.10;99.90;;;;;;5034895;28;20165;-75
2021/08/31 05:15:04;;;;;;;30.10;19.57;;;15.10;99.90;;;;;;5034830;28;20160;-75
2021/08/31 05:17:30;;;;;;;30.97;20.97;;;15.10;99.90;;;;;;5050327;28;20199;-75
2021/08/31 05:19:56;;;;;;;33.13;21.80;;;15.10;99.90;;;;;;5053635;28;20387;-75
2021/08/31 05:22:22;;;;;;;29.70;20.50;;;15.10;99.90;;;;;;5038141;28;20422;-75
2021/08/31 05:24:48;;;;;;;26.90;19.60;;;15.10;99.90;;;;;;5038819;28;20479;-75
2021/08/31 05:27:14;;;;;;;28.53;18.80;;;15.20;99.90;;;;;;5044909;28;20590;-75
2021/08/31 05:29:40;;;;;;;28.70;19.27;;;15.20;99.90;;;;;;5032633;28;20403;-75
2021/08/31 05:32:05;;;;;;;29.50;19.93;;;15.20;99.90;;;;;;5035455;28;20208;-75
2021/08/31 05:34:31;;;;;;;28.77;19.20;;;15.30;99.90;;;;;;5042127;28;20373;-75
2021/08/31 05:36:57;;;;;;;28.37;19.73;;;15.30;99.90;;;;;;5037305;28;20203;-75
2021/08/31 05:39:22;;;;;;;28.20;21.00;;;15.40;99.90;;;;;;5036763;28;20176;-75
2021/08/31 05:41:48;;;;;;;24.37;18.57;;;15.50;99.90;;;;;;5038991;28;20184;-75
2021/08/31 05:44:13;;;;;;;34.40;21.13;;;15.50;99.90;;;;;;5040729;28;20263;-75
2021/08/31 05:46:39;;;;;;;28.00;19.50;;;15.60;99.90;;;;;;5051845;28;20160;-75
2021/08/31 05:49:05;;;;;;;29.53;19.20;;;15.60;99.90;;;;;;5041151;28;20278;-77
2021/08/31 05:51:31;;;;;;;24.23;18.60;;;15.70;99.90;;;;;;5042799;28;20199;-76
2021/08/31 05:53:57;;;;;;;28.80;20.03;;;15.70;99.90;;;;;;5042009;28;20494;-76
2021/08/31 05:56:22;;;;;;;25.10;17.27;;;15.70;99.90;;;;;;5033069;28;20223;-76
2021/08/31 05:58:48;;;;;;;28.00;17.90;;;15.80;99.90;;;;;;5040751;28;20176;-76
2021/08/31 06:01:13;;;;;;;31.10;20.30;;;15.80;99.90;;;;;;5039820;28;20176;-76
2021/08/31 06:03:39;;;;;;;27.90;21.03;;;15.80;99.90;;;;;;5040063;28;20212;-76
2021/08/31 06:06:04;;;;;;;24.93;18.00;;;15.70;99.90;;;;;;5048389;28;20211;-77
2021/08/31 06:08:32;;;;;;;27.20;19.93;;;15.80;99.90;;;;;;5042041;28;20203;-77
2021/08/31 06:10:58;;;;;;;29.20;19.23;;;15.80;99.90;;;;;;5039409;28;20176;-77
2021/08/31 06:13:23;;;;;;;29.13;19.67;;;15.80;99.90;;;;;;5044220;28;20786;-77
2021/08/31 06:15:49;;;;;;;30.53;18.93;;;15.80;99.90;;;;;;5038916;28;20462;-77
2021/08/31 06:18:14;;;;;;;25.57;17.40;;;15.90;99.90;;;;;;5036828;28;20543;-76
2021/08/31 06:20:40;;;;;;;29.90;20.00;;;15.90;99.90;;;;;;5039244;28;20208;-77
2021/08/31 06:23:06;;;;;;;31.60;19.20;;;15.90;99.90;;;;;;5037867;28;20176;-77
2021/08/31 06:25:31;;;;;;;26.70;17.47;;;15.90;99.90;;;;;;5039251;28;20157;-77
2021/08/31 06:27:57;;;;;;;29.03;18.10;;;16.00;99.90;;;;;;5041142;28;20678;-77
2021/08/31 06:30:22;;;;;;;29.37;18.60;;;16.00;99.90;;;;;;5040967;28;20211;-77
2021/08/31 06:32:48;;;;;;;27.87;17.57;;;16.00;99.90;;;;;;5041956;28;20193;-77
2021/08/31 06:35:13;;;;;;;27.30;17.77;;;16.00;99.90;;;;;;5041768;28;20200;-77
2021/08/31 06:37:39;;;;;;;24.53;17.93;;;16.10;99.90;;;;;;5034614;28;20546;-77
2021/08/31 06:40:05;;;;;;;30.40;17.90;;;16.20;99.90;;;;;;5040783;28;20177;-77
2021/08/31 06:42:31;;;;;;;26.57;17.93;;;16.20;99.90;;;;;;5046673;28;20188;-77
2021/08/31 06:44:57;;;;;;;26.97;17.70;;;16.30;99.90;;;;;;5044331;28;20781;-77
2021/08/31 06:47:22;;;;;;;27.60;18.00;;;16.30;99.90;;;;;;5043181;28;20263;-76
2021/08/31 06:49:48;;;;;;;24.80;17.17;;;16.30;99.90;;;;;;5037988;28;20326;-77
2021/08/31 06:52:13;;;;;;;26.50;18.43;;;16.30;99.90;;;;;;5041026;28;20189;-77
2021/08/31 06:54:39;;;;;;;27.17;18.43;;;16.30;99.90;;;;;;5044354;28;20563;-77
2021/08/31 06:57:05;;;;;;;28.07;18.77;;;16.30;99.90;;;;;;5044219;28;20562;-77
2021/08/31 06:59:30;;;;;;;25.60;16.23;;;16.30;99.90;;;;;;5035458;28;20191;-77
2021/08/31 07:01:56;;;;;;;24.00;17.80;;;16.30;99.90;;;;;;5035232;28;20422;-77
2021/08/31 07:04:22;;;;;;;29.07;18.50;;;16.30;99.90;;;;;;5035291;28;20184;-77
2021/08/31 07:06:48;;;;;;;29.93;19.53;;;16.30;99.90;;;;;;5041273;28;20638;-76
2021/08/31 07:09:13;;;;;;;25.23;18.03;;;16.30;99.90;;;;;;5038077;28;20547;-77
2021/08/31 07:11:39;;;;;;;28.80;19.40;;;16.40;99.90;;;;;;5038620;28;20180;-77
2021/08/31 07:14:04;;;;;;;32.00;19.77;;;16.40;99.90;;;;;;5037811;28;20164;-77
2021/08/31 07:16:30;;;;;;;33.67;20.67;;;16.40;99.90;;;;;;5040302;28;20204;-77
2021/08/31 07:18:56;;;;;;;36.60;20.87;;;16.40;99.90;;;;;;5034864;28;20195;-77
2021/08/31 07:21:21;;;;;;;28.97;20.30;;;16.40;99.90;;;;;;5037284;28;20538;-77
2021/08/31 07:23:47;;;;;;;31.57;19.90;;;16.40;99.90;;;;;;5040706;28;20256;-77
2021/08/31 07:26:13;;;;;;;28.10;18.57;;;16.50;99.90;;;;;;5038221;28;20195;-77
2021/08/31 07:28:38;;;;;;;29.77;18.13;;;16.50;99.90;;;;;;5042708;28;20180;-75
2021/08/31 07:31:04;;;;;;;33.40;17.60;;;16.50;99.90;;;;;;5036413;28;20187;-77
2021/08/31 07:33:29;;;;;;;26.90;16.17;;;16.50;99.90;;;;;;5042801;28;20215;-77
2021/08/31 07:35:55;;;;;;;34.70;17.67;;;16.50;99.90;;;;;;5043237;28;20207;-77
2021/08/31 07:38:21;;;;;;;31.00;17.07;;;16.50;99.90;;;;;;5038548;28;20169;-77
2021/08/31 07:40:46;;;;;;;29.80;18.03;;;16.50;99.90;;;;;;5041896;28;20184;-78
2021/08/31 07:43:12;;;;;;;39.70;20.23;;;16.50;99.90;;;;;;5048238;28;20551;-77
2021/08/31 07:45:37;;;;;;;37.00;19.37;;;16.50;99.90;;;;;;5040440;28;20601;-77
2021/08/31 07:48:03;;;;;;;36.50;20.50;;;16.50;99.90;;;;;;5040542;28;20586;-77
2021/08/31 07:50:29;;;;;;;38.00;21.03;;;16.40;99.90;;;;;;5039858;28;20185;-77
2021/08/31 07:52:54;;;;;;;36.73;20.50;;;16.40;99.90;;;;;;5042600;28;20474;-77
2021/08/31 07:55:21;;;;;;;37.90;21.13;;;16.40;99.90;;;;;;5044117;28;20218;-77
2021/08/31 07:57:46;;;;;;;40.80;20.83;;;16.40;99.90;;;;;;5042816;28;20175;-77
2021/08/31 08:00:14;;;;;;;37.97;23.07;;;16.40;99.90;;;;;;5044044;28;20915;-77
2021/08/31 08:02:41;;;;;;;41.43;23.27;;;16.30;99.90;;;;;;5040700;28;20180;-77
2021/08/31 08:05:07;;;;;;;45.83;23.77;;;16.30;99.90;;;;;;5039174;28;20795;-77
2021/08/31 08:07:33;;;;;;;42.77;24.00;;;16.30;99.90;;;;;;5041258;28;20521;-77
2021/08/31 08:09:58;;;;;;;46.03;25.80;;;16.30;99.90;;;;;;5044619;28;20880;-77
2021/08/31 08:12:25;;;;;;;41.60;23.83;;;16.30;99.90;;;;;;5041406;28;20234;-77
2021/08/31 08:14:50;;;;;;;41.90;23.87;;;16.20;99.90;;;;;;5051050;28;20176;-77
2021/08/31 08:17:17;;;;;;;47.37;24.53;;;16.20;99.90;;;;;;5043487;28;20454;-77
2021/08/31 08:19:44;;;;;;;45.80;24.07;;;16.20;99.90;;;;;;5034614;28;20454;-77
2021/08/31 08:22:09;;;;;;;47.83;24.63;;;16.10;99.90;;;;;;5040868;28;20411;-77
2021/08/31 08:24:35;;;;;;;40.53;21.47;;;16.10;99.90;;;;;;5042042;28;20745;-77
2021/08/31 08:27:01;;;;;;;41.90;21.70;;;16.10;99.90;;;;;;5042520;28;20218;-77
2021/08/31 08:29:26;;;;;;;46.47;25.53;;;16.10;99.90;;;;;;5041304;28;20180;-77
2021/08/31 08:31:52;;;;;;;40.70;24.60;;;16.10;99.90;;;;;;5040383;28;20181;-77
2021/08/31 08:34:18;;;;;;;46.00;23.43;;;16.10;99.90;;;;;;5035294;28;20255;-77
2021/08/31 08:36:43;;;;;;;38.10;20.93;;;16.10;99.90;;;;;;5039172;28;20474;-77
2021/08/31 08:39:09;;;;;;;36.33;22.43;;;16.10;99.90;;;;;;5043183;28;20297;-77
2021/08/31 08:41:35;;;;;;;35.80;21.83;;;16.10;99.90;;;;;;5042669;28;20299;-77
2021/08/31 08:44:01;;;;;;;42.77;20.20;;;16.10;99.90;;;;;;5042804;28;20548;-77
2021/08/31 08:46:27;;;;;;;43.70;21.00;;;16.10;99.90;;;;;;5042793;28;20180;-77
2021/08/31 08:48:56;;;;;;;35.70;19.87;;;16.10;99.90;;;;;;5043270;28;20180;-77
2021/08/31 08:51:22;;;;;;;38.37;20.53;;;16.10;99.90;;;;;;5042553;28;20800;-77
2021/08/31 08:53:48;;;;;;;41.87;20.37;;;16.20;99.90;;;;;;5040384;28;20428;-77
2021/08/31 08:56:13;;;;;;;30.10;18.20;;;16.20;99.90;;;;;;5038352;28;20266;-77
2021/08/31 08:58:39;;;;;;;27.43;16.70;;;16.30;99.90;;;;;;5038418;28;20235;-77
2021/08/31 09:01:08;;;;;;;30.77;19.07;;;16.30;99.90;;;;;;5035147;28;20208;-77
2021/08/31 09:03:36;;;;;;;30.07;18.70;;;16.40;99.90;;;;;;5035218;28;20287;-77
2021/08/31 09:14:27;;;;;;;30.90;19.87;;;16.70;99.90;;;;;;5046730;28;20522;-71
2021/08/31 09:17:03;;;;;;;29.73;18.80;;;16.80;99.90;;;;;;5023048;28;20435;-71
2021/08/31 09:19:39;;;;;;;32.30;20.20;;;17.00;99.90;;;;;;5026287;28;20459;-71
2021/08/31 09:22:22;;;;;;;29.13;18.37;;;17.20;99.90;;;;;;5021281;28;20415;-71
2021/08/31 09:25:08;;;;;;;31.20;18.13;;;17.40;99.90;;;;;;5015239;28;20919;-71
2021/08/31 09:35:44;;;;;;;25.47;16.60;;;17.80;99.90;;;;;;5054392;28;20545;-71
2021/08/31 09:38:13;;;;;;;21.07;14.67;;;18.40;99.90;;;;;;5048469;28;20406;-71
2021/08/31 09:40:41;;;;;;;22.63;14.77;;;18.60;99.90;;;;;;5037780;28;20925;-71
2021/08/31 09:43:10;;;;;;;22.90;15.30;;;18.70;99.90;;;;;;5046661;28;20419;-71
2021/08/31 09:45:39;;;;;;;19.00;14.40;;;18.90;99.90;;;;;;5047045;28;20422;-71
2021/08/31 09:48:06;;;;;;;23.27;15.63;;;19.10;99.90;;;;;;5046642;28;20437;-71
2021/08/31 09:50:38;;;;;;;25.70;15.93;;;19.10;99.90;;;;;;5047421;28;20838;-71
2021/08/31 09:53:08;;;;;;;17.73;13.83;;;19.20;99.90;;;;;;5047868;28;20423;-71
2021/08/31 09:55:34;;;;;;;20.87;15.37;;;19.30;99.90;;;;;;5047338;28;21048;-71
2021/08/31 09:58:21;;;;;;;18.37;14.20;;;19.30;99.90;;;;;;5046517;28;20786;-71
2021/08/31 10:00:48;;;;;;;21.13;13.30;;;19.30;99.90;;;;;;5044813;28;20422;-71
2021/08/31 10:03:15;;;;;;;17.70;12.80;;;19.30;99.90;;;;;;5045117;28;20411;-71
2021/08/31 10:05:42;;;;;;;17.17;11.50;;;19.30;99.90;;;;;;5042114;28;20422;-71
2021/08/31 10:08:08;;;;;;;19.10;13.33;;;19.40;99.90;;;;;;5047594;28;20417;-71
2021/08/31 10:10:36;;;;;;;15.93;10.80;;;19.40;99.90;;;;;;5040851;28;20434;-71
2021/08/31 10:13:05;;;;;;;19.03;12.53;;;19.50;99.90;;;;;;5044024;28;20438;-71
2021/08/31 10:15:31;;;;;;;14.20;11.03;;;19.50;99.90;;;;;;5047837;28;20829;-71
2021/08/31 10:17:57;;;;;;;20.70;12.60;;;19.50;99.90;;;;;;5043434;28;20418;-71
2021/08/31 10:20:26;;;;;;;16.13;11.77;;;19.60;99.90;;;;;;5048041;28;20183;-71
2021/08/31 10:22:52;;;;;;;13.00;11.17;;;19.60;99.90;;;;;;5048392;28;20438;-71
2021/08/31 10:25:26;;;;;;;13.67;10.40;;;19.70;99.90;;;;;;5047325;28;20480;-71
2021/08/31 10:27:54;;;;;;;14.30;10.93;;;19.70;99.90;;;;;;5046735;28;20439;-71
2021/08/31 10:32:59;;;;;;;13.83;10.00;;;19.70;99.90;;;;;;5048581;28;21094;-70
2021/08/31 10:38:13;;;;;;;11.30;9.63;;;19.70;99.90;;;;;;5029747;28;20570;-71
2021/08/31 10:40:43;;;;;;;9.67;8.20;;;19.60;99.90;;;;;;5032448;28;20449;-71
2021/08/31 10:43:10;;;;;;;12.87;8.90;;;19.60;99.90;;;;;;5038158;28;20797;-71
2021/08/31 10:45:39;;;;;;;13.93;10.03;;;19.70;99.90;;;;;;5038436;28;20383;-71
2021/08/31 10:58:59;;;;;;;8.57;7.33;;;19.70;99.90;;;;;;5061169;28;20557;-71
2021/08/31 11:01:36;;;;;;;11.23;7.60;;;19.50;99.90;;;;;;5035837;28;20423;-71
2021/08/31 11:04:26;;;;;;;10.13;8.33;;;19.50;99.90;;;;;;5043958;28;20410;-71
2021/08/31 11:07:01;;;;;;;7.70;6.90;;;19.40;99.90;;;;;;5041425;28;20489;-71
2021/08/31 11:09:27;;;;;;;9.80;8.23;;;19.20;99.90;;;;;;5045934;28;20397;-71
2021/08/31 11:14:57;;;;;;;9.17;8.03;;;19.20;99.90;;;;;;5110165;27;20509;-70
2021/08/31 11:22:50;;;;;;;8.97;8.07;;;19.20;99.90;;;;;;5057115;28;20693;-71
2021/08/31 11:25:24;;;;;;;11.37;8.73;;;19.30;99.90;;;;;;5060453;28;20486;-71
2021/08/31 11:27:53;;;;;;;8.20;7.40;;;19.20;99.90;;;;;;5045462;28;20812;-71
2021/08/31 11:30:19;;;;;;;11.17;7.97;;;19.10;99.90;;;;;;5046608;28;20940;-71
2021/08/31 11:32:45;;;;;;;11.73;8.43;;;19.10;99.90;;;;;;5045298;28;20509;-71
2021/08/31 11:35:11;;;;;;;10.70;8.70;;;19.00;99.90;;;;;;5045754;28;20469;-71
2021/08/31 11:37:52;;;;;;;12.90;8.63;;;19.00;99.90;;;;;;5046280;28;20442;-71
2021/08/31 11:40:27;;;;;;;11.30;8.27;;;19.00;99.90;;;;;;5047339;28;20190;-71
2021/08/31 11:42:55;;;;;;;11.07;9.23;;;18.90;99.90;;;;;;5042939;28;20426;-71
2021/08/31 11:45:30;;;;;;;10.30;8.87;;;18.80;99.90;;;;;;5047790;28;20419;-71
2021/08/31 11:47:56;;;;;;;8.87;7.80;;;18.80;99.90;;;;;;5046130;28;20415;-71
2021/08/31 11:50:21;;;;;;;9.77;7.80;;;18.80;99.90;;;;;;5044063;28;20458;-71
2021/08/31 11:52:47;;;;;;;11.50;7.80;;;18.80;99.90;;;;;;5037674;28;20263;-71
2021/08/31 11:55:13;;;;;;;8.70;7.40;;;18.80;99.90;;;;;;5057604;28;20237;-71
2021/08/31 11:57:38;;;;;;;7.10;6.40;;;18.80;99.90;;;;;;5049511;28;20263;-71
2021/08/31 12:00:05;;;;;;;9.43;7.70;;;18.80;99.90;;;;;;5034893;28;20199;-71
2021/08/31 12:02:41;;;;;;;8.13;6.60;;;18.90;99.90;;;;;;5031555;28;20199;-71
2021/08/31 12:05:07;;;;;;;8.50;7.03;;;18.90;99.90;;;;;;5041919;28;20421;-71
2021/08/31 12:07:43;;;;;;;9.60;7.30;;;18.90;99.90;;;;;;5046246;28;20419;-71
2021/08/31 12:10:13;;;;;;;10.13;6.50;;;18.90;99.90;;;;;;5042752;28;20426;-71
2021/08/31 12:12:42;;;;;;;7.97;6.40;;;18.80;99.90;;;;;;5042940;28;20499;-71
2021/08/31 12:15:09;;;;;;;8.30;6.17;;;18.80;99.90;;;;;;5052074;28;20433;-71
2021/08/31 12:17:38;;;;;;;7.70;5.90;;;18.80;99.90;;;;;;5041596;28;20426;-71
2021/08/31 12:20:08;;;;;;;7.93;6.33;;;18.90;99.90;;;;;;5045391;28;20812;-71
2021/08/31 12:22:37;;;;;;;10.30;6.83;;;19.10;99.90;;;;;;5042415;28;20836;-71
2021/08/31 12:25:02;;;;;;;6.03;5.50;;;19.20;99.90;;;;;;5044910;28;20947;-71
2021/08/31 12:27:50;;;;;;;9.10;6.37;;;19.30;99.90;;;;;;5046222;28;20402;-71
2021/08/31 12:30:19;;;;;;;8.00;5.40;;;19.30;99.90;;;;;;5039450;28;20172;-71
2021/08/31 12:33:00;;;;;;;7.40;4.67;;;19.30;99.90;;;;;;5042862;28;20434;-71
2021/08/31 12:41:05;;;;;;;7.30;4.87;;;19.20;99.90;;;;;;5062970;28;20601;-71
2021/08/31 12:43:50;;;;;;;5.60;4.67;;;19.20;99.90;;;;;;5047816;28;20418;-71
2021/08/31 12:46:22;;;;;;;7.47;5.60;;;19.20;99.90;;;;;;5048909;28;20494;-71
2021/08/31 12:48:49;;;;;;;7.80;5.63;;;19.20;99.90;;;;;;5047347;28;20438;-71
2021/08/31 12:51:30;;;;;;;8.30;6.70;;;19.20;99.90;;;;;;5048999;28;20857;-71
2021/08/31 12:53:56;;;;;;;8.53;5.80;;;19.30;99.90;;;;;;5049973;28;20430;-71
2021/08/31 12:56:22;;;;;;;7.93;5.87;;;19.40;99.90;;;;;;5049149;28;20419;-71
2021/08/31 12:58:59;;;;;;;6.33;5.60;;;19.60;99.90;;;;;;5054179;28;20224;-71
2021/08/31 13:01:25;;;;;;;7.30;5.60;;;19.60;99.90;;;;;;5047283;28;20181;-71
2021/08/31 13:03:52;;;;;;;6.17;5.43;;;19.70;99.90;;;;;;5046831;28;20779;-71
2021/08/31 13:09:13;;;;;;;5.57;4.50;;;19.80;99.90;;;;;;5057085;28;20943;-71
2021/08/31 13:11:44;;;;;;;6.57;5.10;;;19.60;99.90;;;;;;5047430;28;20493;-71
2021/08/31 13:16:54;;;;;;;4.93;4.43;;;19.50;99.90;;;;;;5052115;28;20530;-71
2021/08/31 13:19:21;;;;;;;4.80;3.97;;;19.60;99.90;;;;;;5046150;28;20788;-71
2021/08/31 13:21:47;;;;;;;6.07;4.60;;;19.60;99.90;;;;;;5044758;28;20646;-71
2021/08/31 13:24:14;;;;;;;5.00;4.07;;;19.80;99.90;;;;;;5045482;28;20815;-71